Aérodrome :
LOGIN :

S'inscrire | Disclaimer

   EN    FR    IT 

 










Légende :    VFR   VFR Marginal   IFR   IFR Intensif   IFR Très Intensif
Visi : 
Plafond : 
>= 8 km
>= 3000ft
5 à 8 km
1000 à 3000 ft
1500m à 5 km
500 à 1000 ft
800 à 1500m
200 à 500 ft
< 800m
< 200 ft
Symboles :   Orages  Brouillard  Fortes neiges  Fortes précipitations  Vent > 20 kt
SIGMETs :   Divers  Orages  Givrage  Turbulence  Onde Orograph.  Cendres Volcan.






- Altitude de l'aérodrome : 287 ft


LFRL - Lanveoc Poulmic

DERNIER METAR :
  • 281200Z AUTO 27006KT 3300 -RA BR BKN005 BKN011 OVC023 16/15 Q1018 TEMPO BKN015 BECMG 9999 NSW

METARs EXPIRÉS :
  • 281130Z AUTO 25010KT 9999 BKN006 BKN010 BKN015 16/15 Q1018 TEMPO BKN015
  • 281100Z AUTO 24008KT 9999 BKN007 BKN013 OVC060 16/15 Q1018 TEMPO 3000 RADZ
  • 281030Z AUTO 24006KT 200V270 9999 BKN008 OVC013 16/15 Q1018 TEMPO 3000 RADZ
  • 281000Z AUTO 26008KT 220V290 9999 OVC008 16/15 Q1018 TEMPO 3000 RADZ
  • 280930Z AUTO 26009KT 9999 BKN007 OVC066 16/14 Q1018 TEMPO 3000 RADZ

TAF TAF LFRL
Valide du 28 à 12h jusqu'au 29 à 12h UTC


281100Z 2812/2912 23007KT 9999 BKN005 BKN012 OVC060
TEMPO 2812/2815 BKN015
BECMG 2816/2818 3000 RADZ BKN003
PROB40
TEMPO 2820/2905 0600 FG VV///
BECMG 2909/2912 9999 NSW BKN015



MET'MAP, la Météo Aéronautique d'un coup d'oeil ! - Copyright ORBIFLY Décembre 2007 - Disclaimer

ORBIFLY MET'MAP TEAM :

Programmation & Développement : Alexandra Zaïnal
Sur une idée originale de : Baudouin d'Aumeries
Assistance à la programmation : Marc-Olivier Méhu
Soutien technique & logistique : Manuel Goepfert

Contact : metmap@orbifly.com




SOURCES & CREDITS :

   NOAA